Time;durP1;ratioP1;P1;durP2;ratioP2;P2;SDS_P1;SDS_P2;PMS_P1;PMS_P2;Temp;Humidity;BMP_temperature;BMP_pressure;BME280_temperature;BME280_humidity;BME280_pressure;Samples;Min_cycle;Max_cycle;Signal;HPM_P1;HPM_P2
2022/08/10 00:01:11;;;;;;;3.50;1.98;;;;;;;;;;5082229;28;20035;-67
2022/08/10 00:03:57;;;;;;;3.38;1.90;;;;;;;;;;5082644;28;20055;-68
2022/08/10 00:06:43;;;;;;;5.32;2.20;;;;;;;;;;5079073;28;20028;-67
2022/08/10 00:09:28;;;;;;;3.08;2.13;;;;;;;;;;5091085;28;20012;-67
2022/08/10 00:12:14;;;;;;;2.45;1.95;;;;;;;;;;5089827;28;20028;-67
2022/08/10 00:14:59;;;;;;;3.72;2.03;;;;;;;;;;5085409;28;20503;-61
2022/08/10 00:17:45;;;;;;;3.20;1.83;;;;;;;;;;5088838;28;20031;-71
2022/08/10 00:20:31;;;;;;;4.95;1.90;;;;;;;;;;5089671;28;20042;-71
2022/08/10 00:23:16;;;;;;;5.97;1.92;;;;;;;;;;5086137;28;20035;-71
2022/08/10 00:26:02;;;;;;;3.90;1.90;;;;;;;;;;5091119;28;20074;-71
2022/08/10 00:28:48;;;;;;;3.25;1.67;;;;;;;;;;5090251;28;20081;-71
2022/08/10 00:31:33;;;;;;;2.42;1.60;;;;;;;;;;5081793;28;20067;-71
2022/08/10 00:34:19;;;;;;;3.05;1.95;;;;;;;;;;5080871;28;20032;-65
2022/08/10 00:37:05;;;;;;;3.35;1.65;;;;;;;;;;5087193;28;20105;-59
2022/08/10 00:39:50;;;;;;;3.95;2.20;;;;;;;;;;5081004;28;20032;-59
2022/08/10 00:42:36;;;;;;;4.88;2.10;;;;;;;;;;5060250;28;20081;-63
2022/08/10 00:45:21;;;;;;;3.47;2.00;;;;;;;;;;5076832;28;20383;-58
2022/08/10 00:48:07;;;;;;;3.20;1.98;;;;;;;;;;5075245;28;20031;-59
2022/08/10 00:50:52;;;;;;;3.38;2.00;;;;;;;;;;5064680;28;20040;-59
2022/08/10 00:53:38;;;;;;;2.55;1.98;;;;;;;;;;5088830;28;20032;-66
2022/08/10 00:56:24;;;;;;;4.78;1.90;;;;;;;;;;5089270;28;20509;-71
2022/08/10 00:59:09;;;;;;;2.92;1.95;;;;;;;;;;5075892;28;20127;-72
2022/08/10 01:01:55;;;;;;;2.03;1.60;;;;;;;;;;5078785;28;20032;-71
2022/08/10 01:04:40;;;;;;;2.80;1.58;;;;;;;;;;5090521;28;20076;-71
2022/08/10 01:07:26;;;;;;;2.03;1.70;;;;;;;;;;5082056;28;20352;-70
2022/08/10 01:10:14;;;;;;;2.30;1.80;;;;;;;;;;5088583;28;20028;-63
2022/08/10 01:13:04;;;;;;;2.93;1.80;;;;;;;;;;5089926;28;20124;-62
2022/08/10 01:15:56;;;;;;;5.78;1.80;;;;;;;;;;5071374;28;20070;-59
2022/08/10 01:18:46;;;;;;;2.90;1.73;;;;;;;;;;5091003;28;20170;-57
2022/08/10 01:21:35;;;;;;;4.15;2.00;;;;;;;;;;5088265;28;20078;-59
2022/08/10 01:24:23;;;;;;;2.00;1.60;;;;;;;;;;5082255;28;20057;-59
2022/08/10 01:27:18;;;;;;;3.70;1.92;;;;;;;;;;5090988;28;20497;-58
2022/08/10 01:30:06;;;;;;;2.75;1.70;;;;;;;;;;5088189;28;20047;-67
2022/08/10 01:33:10;;;;;;;4.90;1.90;;;;;;;;;;5083100;28;20029;-72
2022/08/10 01:35:58;;;;;;;3.88;2.00;;;;;;;;;;5089297;28;20390;-70
2022/08/10 01:38:46;;;;;;;2.47;1.85;;;;;;;;;;5088192;28;20028;-70
2022/08/10 01:41:42;;;;;;;2.53;1.95;;;;;;;;;;5091534;28;20444;-71
2022/08/10 01:44:38;;;;;;;2.38;1.80;;;;;;;;;;5095601;28;20023;-71
2022/08/10 01:50:36;;;;;;;4.32;1.70;;;;;;;;;;5078090;28;20032;-61
2022/08/10 01:53:23;;;;;;;3.65;1.80;;;;;;;;;;5085882;28;20027;-61
2022/08/10 01:56:11;;;;;;;1.90;1.67;;;;;;;;;;5090647;28;20065;-63
2022/08/10 01:58:59;;;;;;;3.70;1.92;;;;;;;;;;5085240;28;20060;-61
2022/08/10 02:01:46;;;;;;;5.68;1.80;;;;;;;;;;5090919;28;20097;-61
2022/08/10 02:04:34;;;;;;;4.38;2.05;;;;;;;;;;5096611;28;20667;-62
2022/08/10 02:07:22;;;;;;;2.22;2.00;;;;;;;;;;5082329;28;20032;-60
2022/08/10 02:10:09;;;;;;;2.15;1.95;;;;;;;;;;5082998;28;20099;-67
2022/08/10 02:12:56;;;;;;;3.28;2.05;;;;;;;;;;5091020;28;20032;-66
2022/08/10 02:15:43;;;;;;;5.80;2.30;;;;;;;;;;5087134;28;20462;-66
2022/08/10 02:18:29;;;;;;;4.53;1.77;;;;;;;;;;5086816;28;20425;-67
2022/08/10 02:21:15;;;;;;;3.42;1.73;;;;;;;;;;5086456;28;20036;-67
2022/08/10 02:24:01;;;;;;;2.03;1.83;;;;;;;;;;5089514;28;20044;-67
2022/08/10 02:26:47;;;;;;;5.30;1.98;;;;;;;;;;5080472;28;20037;-71
2022/08/10 02:29:34;;;;;;;4.10;2.10;;;;;;;;;;5085811;28;20032;-73
2022/08/10 02:32:22;;;;;;;3.97;1.77;;;;;;;;;;5093303;28;20089;-71
2022/08/10 02:35:10;;;;;;;5.13;2.60;;;;;;;;;;5090124;28;20054;-72
2022/08/10 02:37:58;;;;;;;2.53;2.22;;;;;;;;;;5091589;28;20030;-72
2022/08/10 02:40:46;;;;;;;3.70;2.05;;;;;;;;;;5080956;28;20103;-72
2022/08/10 02:43:34;;;;;;;4.63;2.10;;;;;;;;;;5088905;28;20051;-69
2022/08/10 02:46:25;;;;;;;4.65;2.13;;;;;;;;;;5088720;28;20036;-63
2022/08/10 02:49:16;;;;;;;1.90;1.70;;;;;;;;;;5096974;28;20038;-64
2022/08/10 02:52:04;;;;;;;2.70;1.80;;;;;;;;;;5083793;28;20105;-64
2022/08/10 02:54:51;;;;;;;3.85;2.10;;;;;;;;;;5077834;28;20482;-63
2022/08/10 02:57:39;;;;;;;4.22;2.10;;;;;;;;;;5064010;28;20034;-64
2022/08/10 03:00:25;;;;;;;4.57;2.63;;;;;;;;;;5083882;28;20483;-61
2022/08/10 03:03:15;;;;;;;5.03;2.63;;;;;;;;;;5081183;28;20479;-61
2022/08/10 03:06:04;;;;;;;7.25;2.10;;;;;;;;;;5097595;28;20455;-62
2022/08/10 03:08:50;;;;;;;3.35;1.80;;;;;;;;;;5093278;28;20374;-62
2022/08/10 03:11:37;;;;;;;2.33;1.80;;;;;;;;;;5090964;28;20032;-62
2022/08/10 03:14:24;;;;;;;4.15;2.13;;;;;;;;;;5093830;28;20036;-63
2022/08/10 03:17:10;;;;;;;5.13;2.15;;;;;;;;;;5082619;28;20029;-62
2022/08/10 03:19:56;;;;;;;3.35;2.20;;;;;;;;;;5091551;28;20107;-67
2022/08/10 03:22:43;;;;;;;6.47;2.25;;;;;;;;;;5091832;28;20040;-60
2022/08/10 03:25:29;;;;;;;5.30;2.60;;;;;;;;;;5100907;28;20131;-60
2022/08/10 03:28:15;;;;;;;5.22;2.47;;;;;;;;;;5092608;28;20032;-59
2022/08/10 03:31:01;;;;;;;3.90;2.65;;;;;;;;;;5089966;28;20028;-59
2022/08/10 03:33:47;;;;;;;5.80;2.47;;;;;;;;;;5092091;28;20028;-59
2022/08/10 03:36:33;;;;;;;4.15;2.13;;;;;;;;;;5090804;28;20034;-59
2022/08/10 03:39:19;;;;;;;3.30;2.38;;;;;;;;;;5091316;28;20065;-66
2022/08/10 03:42:06;;;;;;;6.82;2.35;;;;;;;;;;5086920;28;20043;-67
2022/08/10 03:44:52;;;;;;;3.53;2.10;;;;;;;;;;5085811;28;20411;-68
2022/08/10 03:47:40;;;;;;;4.60;2.42;;;;;;;;;;5079821;28;20027;-72
2022/08/10 03:50:26;;;;;;;4.82;2.72;;;;;;;;;;5082000;28;20448;-66
2022/08/10 03:53:12;;;;;;;4.18;2.72;;;;;;;;;;5090245;28;20024;-68
2022/08/10 03:55:58;;;;;;;3.13;2.25;;;;;;;;;;5092663;28;20024;-70
2022/08/10 03:58:44;;;;;;;5.00;3.25;;;;;;;;;;5093672;28;20024;-60
2022/08/10 04:01:30;;;;;;;6.07;3.78;;;;;;;;;;5089308;28;20020;-61
2022/08/10 04:04:16;;;;;;;5.68;4.30;;;;;;;;;;5091264;28;20123;-61
2022/08/10 04:07:02;;;;;;;5.93;3.53;;;;;;;;;;5092271;28;20027;-61
2022/08/10 04:09:47;;;;;;;5.10;3.47;;;;;;;;;;5095597;28;20077;-61
2022/08/10 04:12:33;;;;;;;4.70;3.33;;;;;;;;;;5095959;28;20129;-61
2022/08/10 04:15:19;;;;;;;7.28;3.40;;;;;;;;;;5091364;28;20062;-67
2022/08/10 04:18:04;;;;;;;5.00;3.50;;;;;;;;;;5075785;28;20027;-67
2022/08/10 04:20:55;;;;;;;5.03;2.85;;;;;;;;;;5092710;28;20031;-66
2022/08/10 04:23:45;;;;;;;4.45;2.85;;;;;;;;;;5090047;28;20039;-68
2022/08/10 04:26:31;;;;;;;3.85;2.67;;;;;;;;;;5084435;28;20024;-67
2022/08/10 04:29:16;;;;;;;3.65;2.78;;;;;;;;;;5093304;28;20039;-67
2022/08/10 04:32:03;;;;;;;5.50;2.70;;;;;;;;;;5086577;28;20055;-68
2022/08/10 04:34:49;;;;;;;5.43;2.80;;;;;;;;;;5084446;28;20410;-62
2022/08/10 04:37:36;;;;;;;5.78;2.88;;;;;;;;;;5088701;28;20019;-66
2022/08/10 04:40:22;;;;;;;3.70;2.65;;;;;;;;;;5087258;28;20025;-67
2022/08/10 04:43:08;;;;;;;4.50;2.92;;;;;;;;;;5080234;28;20032;-67
2022/08/10 04:45:53;;;;;;;7.13;3.05;;;;;;;;;;5088196;28;20077;-67
2022/08/10 04:48:39;;;;;;;3.28;2.53;;;;;;;;;;5088407;28;20012;-67
2022/08/10 04:51:24;;;;;;;6.20;2.90;;;;;;;;;;5090719;28;20034;-59
2022/08/10 04:54:10;;;;;;;4.32;2.53;;;;;;;;;;5094740;28;20024;-62
2022/08/10 04:56:55;;;;;;;5.93;3.00;;;;;;;;;;5088312;28;20028;-60
2022/08/10 04:59:41;;;;;;;4.35;2.30;;;;;;;;;;5082032;28;20035;-60
2022/08/10 05:02:26;;;;;;;4.47;2.55;;;;;;;;;;5091030;28;20367;-61
2022/08/10 05:05:12;;;;;;;6.72;2.70;;;;;;;;;;5090570;28;20433;-61
2022/08/10 05:07:57;;;;;;;6.00;2.90;;;;;;;;;;5088287;28;20025;-63
2022/08/10 05:10:43;;;;;;;5.28;3.22;;;;;;;;;;5093325;28;20028;-67
2022/08/10 05:13:29;;;;;;;3.72;2.50;;;;;;;;;;5093035;28;20422;-70
2022/08/10 05:16:14;;;;;;;4.40;2.75;;;;;;;;;;5079416;28;20032;-71
2022/08/10 05:19:00;;;;;;;4.22;2.50;;;;;;;;;;5105025;28;20063;-70
2022/08/10 05:21:45;;;;;;;5.40;3.05;;;;;;;;;;5106333;28;20466;-70
2022/08/10 05:24:31;;;;;;;5.10;2.58;;;;;;;;;;5093655;28;20035;-70
2022/08/10 05:27:17;;;;;;;5.47;2.78;;;;;;;;;;5083637;28;20051;-72
2022/08/10 05:30:03;;;;;;;6.63;3.15;;;;;;;;;;5076326;28;20020;-66
2022/08/10 05:32:49;;;;;;;5.00;2.97;;;;;;;;;;5088761;28;20032;-71
2022/08/10 05:35:34;;;;;;;5.18;2.72;;;;;;;;;;5088167;28;20031;-71
2022/08/10 05:38:21;;;;;;;5.18;2.45;;;;;;;;;;5081598;28;20530;-71
2022/08/10 05:41:07;;;;;;;5.90;2.88;;;;;;;;;;5089906;28;20024;-71
2022/08/10 05:43:53;;;;;;;7.22;3.08;;;;;;;;;;5089427;28;20114;-74
2022/08/10 05:46:39;;;;;;;7.20;2.95;;;;;;;;;;5064219;28;20056;-62
2022/08/10 05:49:25;;;;;;;6.18;2.75;;;;;;;;;;5088628;28;20401;-67
2022/08/10 05:52:10;;;;;;;7.95;2.78;;;;;;;;;;5091000;28;20497;-66
2022/08/10 05:54:56;;;;;;;5.03;2.30;;;;;;;;;;5084264;28;20032;-64
2022/08/10 05:57:42;;;;;;;7.20;3.08;;;;;;;;;;5089736;28;20085;-62
2022/08/10 06:00:29;;;;;;;5.57;2.50;;;;;;;;;;5077471;28;20494;-65
2022/08/10 06:03:15;;;;;;;3.80;2.47;;;;;;;;;;5084470;28;20444;-64
2022/08/10 06:06:02;;;;;;;7.18;2.67;;;;;;;;;;5072759;28;20458;-62
2022/08/10 06:08:49;;;;;;;8.27;3.22;;;;;;;;;;5069760;28;20043;-76
2022/08/10 06:11:34;;;;;;;7.22;3.15;;;;;;;;;;5085319;28;20027;-74
2022/08/10 06:17:25;;;;;;;8.25;2.78;;;;;;;;;;5086177;28;20502;-75
2022/08/10 06:20:11;;;;;;;5.35;2.72;;;;;;;;;;5056219;28;20028;-74
2022/08/10 06:23:00;;;;;;;5.50;3.45;;;;;;;;;;5074634;28;20028;-65
2022/08/10 06:25:46;;;;;;;;;;;;;;;;;;5083300;28;20070;-63
2022/08/10 06:28:33;;;;;;;4.35;2.60;;;;;;;;;;5081662;28;19951;-65
2022/08/10 06:31:20;;;;;;;5.40;2.70;;;;;;;;;;5083781;28;20551;-64
2022/08/10 06:34:07;;;;;;;9.68;2.83;;;;;;;;;;5077748;28;20024;-65
2022/08/10 06:36:54;;;;;;;7.32;2.85;;;;;;;;;;5082092;28;20165;-64
2022/08/10 06:39:39;;;;;;;3.90;2.78;;;;;;;;;;5082132;28;20040;-64
2022/08/10 06:42:31;;;;;;;7.38;2.45;;;;;;;;;;5082397;28;20031;-68
2022/08/10 06:45:37;;;;;;;7.70;2.60;;;;;;;;;;5082252;28;20109;-60
2022/08/10 06:48:32;;;;;;;3.60;2.00;;;;;;;;;;5084705;28;20068;-60
2022/08/10 06:51:22;;;;;;;5.55;2.42;;;;;;;;;;5084041;28;20195;-60
2022/08/10 06:54:10;;;;;;;3.85;2.38;;;;;;;;;;5073749;28;20033;-57
2022/08/10 06:56:57;;;;;;;3.90;2.10;;;;;;;;;;5076682;28;20033;-58
2022/08/10 06:59:44;;;;;;;4.50;2.05;;;;;;;;;;5062846;28;20279;-61
2022/08/10 07:02:36;;;;;;;4.80;1.67;;;;;;;;;;5086470;28;20035;-63
2022/08/10 07:05:23;;;;;;;4.28;2.20;;;;;;;;;;5072878;28;20089;-67
2022/08/10 07:08:09;;;;;;;4.43;1.83;;;;;;;;;;5083869;28;20036;-67
2022/08/10 07:10:55;;;;;;;7.07;1.88;;;;;;;;;;5076971;28;20040;-71
2022/08/10 07:13:41;;;;;;;4.07;1.88;;;;;;;;;;5089810;28;20020;-67
2022/08/10 07:16:27;;;;;;;3.72;2.05;;;;;;;;;;5088631;28;20031;-67
2022/08/10 07:19:13;;;;;;;4.32;1.88;;;;;;;;;;5085841;28;20035;-61
2022/08/10 07:21:59;;;;;;;5.28;2.47;;;;;;;;;;5091466;28;20034;-75
2022/08/10 07:24:46;;;;;;;3.03;1.90;;;;;;;;;;5089490;28;20040;-77
2022/08/10 07:27:32;;;;;;;6.32;1.75;;;;;;;;;;5084364;28;20028;-76
2022/08/10 07:30:18;;;;;;;3.72;1.58;;;;;;;;;;5088318;28;20028;-77
2022/08/10 07:33:04;;;;;;;5.03;2.10;;;;;;;;;;5085773;28;20024;-74
2022/08/10 07:35:50;;;;;;;3.03;1.75;;;;;;;;;;5086105;28;20070;-78
2022/08/10 07:38:36;;;;;;;3.17;1.50;;;;;;;;;;5073119;28;20108;-66
2022/08/10 07:41:22;;;;;;;6.93;1.50;;;;;;;;;;5080760;28;20035;-74
2022/08/10 07:44:09;;;;;;;2.95;1.85;;;;;;;;;;5087847;28;20020;-68
2022/08/10 07:46:55;;;;;;;3.72;1.52;;;;;;;;;;5086683;28;20635;-73
2022/08/10 07:49:42;;;;;;;5.15;1.83;;;;;;;;;;5085678;28;20117;-74
2022/08/10 07:52:30;;;;;;;4.13;1.67;;;;;;;;;;5076276;28;20020;-77
2022/08/10 07:55:18;;;;;;;6.07;2.03;;;;;;;;;;5085797;28;20024;-64
2022/08/10 07:58:04;;;;;;;2.90;1.60;;;;;;;;;;5089157;28;20051;-59
2022/08/10 08:00:50;;;;;;;4.07;1.77;;;;;;;;;;5083212;28;20032;-58
2022/08/10 08:03:36;;;;;;;3.47;1.70;;;;;;;;;;5089904;28;20032;-59
2022/08/10 08:06:23;;;;;;;3.63;1.70;;;;;;;;;;5089176;28;20047;-61
2022/08/10 08:09:10;;;;;;;3.67;1.38;;;;;;;;;;5078321;28;20051;-58
2022/08/10 08:11:56;;;;;;;3.95;1.70;;;;;;;;;;5073463;28;20036;-58
2022/08/10 08:14:42;;;;;;;2.67;1.27;;;;;;;;;;5082398;28;20820;-58
2022/08/10 08:17:30;;;;;;;3.78;1.83;;;;;;;;;;5089804;28;20474;-61
2022/08/10 08:20:16;;;;;;;6.50;1.67;;;;;;;;;;5087020;28;20027;-61
2022/08/10 08:23:02;;;;;;;3.88;1.52;;;;;;;;;;5071876;28;20039;-61
2022/08/10 08:25:48;;;;;;;6.47;1.55;;;;;;;;;;5086969;28;20028;-61
2022/08/10 08:28:34;;;;;;;3.72;1.50;;;;;;;;;;5087700;28;20020;-61
2022/08/10 08:31:20;;;;;;;4.53;1.67;;;;;;;;;;5083782;28;20020;-61
2022/08/10 08:34:06;;;;;;;5.00;2.22;;;;;;;;;;5089005;28;20111;-77
2022/08/10 08:36:53;;;;;;;6.15;2.05;;;;;;;;;;5083528;28;20032;-61
2022/08/10 08:39:40;;;;;;;3.00;1.58;;;;;;;;;;5074357;28;20099;-61
2022/08/10 08:42:34;;;;;;;3.10;1.70;;;;;;;;;;5081617;28;20390;-62
2022/08/10 08:45:35;;;;;;;5.50;1.70;;;;;;;;;;5087130;28;20031;-63
2022/08/10 08:48:29;;;;;;;2.50;1.45;;;;;;;;;;5093365;28;20023;-62
2022/08/10 08:51:32;;;;;;;3.47;1.73;;;;;;;;;;5079838;28;20055;-68
2022/08/10 08:54:36;;;;;;;5.68;1.65;;;;;;;;;;5087591;28;20036;-63
2022/08/10 08:57:24;;;;;;;5.80;1.77;;;;;;;;;;5083001;28;20039;-63
2022/08/10 09:00:28;;;;;;;3.85;1.88;;;;;;;;;;5080590;28;20111;-60
2022/08/10 09:03:17;;;;;;;2.08;1.73;;;;;;;;;;5088208;28;20036;-61
2022/08/10 09:06:15;;;;;;;4.38;1.48;;;;;;;;;;5086481;28;20048;-60
2022/08/10 09:09:16;;;;;;;5.40;1.90;;;;;;;;;;5090369;28;20111;-64
2022/08/10 09:12:18;;;;;;;5.93;1.90;;;;;;;;;;5084104;28;20097;-59
2022/08/10 09:15:13;;;;;;;5.80;1.85;;;;;;;;;;5089721;28;20024;-60
2022/08/10 09:18:05;;;;;;;3.70;1.75;;;;;;;;;;5086494;28;20077;-61
2022/08/10 09:21:02;;;;;;;4.72;1.42;;;;;;;;;;5078381;28;20029;-60
2022/08/10 09:23:54;;;;;;;4.10;1.35;;;;;;;;;;5084269;28;20089;-61
2022/08/10 09:26:39;;;;;;;7.88;1.52;;;;;;;;;;5090663;28;20538;-60
2022/08/10 09:29:26;;;;;;;4.80;1.60;;;;;;;;;;5081930;28;20348;-61
2022/08/10 09:32:36;;;;;;;3.00;1.60;;;;;;;;;;5063964;28;20032;-67
2022/08/10 09:35:24;;;;;;;5.60;1.83;;;;;;;;;;5084724;28;20040;-67
2022/08/10 09:38:15;;;;;;;6.50;1.30;;;;;;;;;;5087960;28;20028;-65
2022/08/10 09:41:19;;;;;;;2.65;1.60;;;;;;;;;;5089938;28;20089;-66
2022/08/10 09:44:10;;;;;;;3.50;1.50;;;;;;;;;;5081246;28;20024;-68
2022/08/10 09:47:14;;;;;;;5.28;1.50;;;;;;;;;;5087088;28;20383;-64
2022/08/10 09:50:03;;;;;;;3.85;1.65;;;;;;;;;;5079342;28;20418;-60
2022/08/10 09:53:27;;;;;;;5.03;1.42;;;;;;;;;;5082854;28;20086;-60
2022/08/10 09:56:31;;;;;;;4.57;1.70;;;;;;;;;;4986166;28;20049;-60
2022/08/10 09:59:22;;;;;;;2.92;1.50;;;;;;;;;;4983465;28;20494;-61
2022/08/10 10:02:11;;;;;;;2.70;1.38;;;;;;;;;;4985630;28;20038;-60
2022/08/10 10:04:56;;;;;;;;;;;;;;;;;;4989597;28;20057;-58
2022/08/10 10:07:45;;;;;;;2.75;1.35;;;;;;;;;;4990372;28;19936;-67
2022/08/10 10:10:49;;;;;;;2.13;1.27;;;;;;;;;;4990307;28;20019;-67
2022/08/10 10:13:40;;;;;;;6.38;1.75;;;;;;;;;;4980600;28;20037;-67
2022/08/10 10:16:32;;;;;;;2.05;1.30;;;;;;;;;;4972155;28;20575;-65
2022/08/10 10:19:33;;;;;;;3.42;1.50;;;;;;;;;;4989393;28;20042;-68
2022/08/10 10:22:34;;;;;;;5.05;2.08;;;;;;;;;;4986937;28;20072;-70
2022/08/10 10:25:27;;;;;;;5.03;1.65;;;;;;;;;;4987228;28;20026;-76
2022/08/10 10:28:31;;;;;;;4.10;1.70;;;;;;;;;;5067871;28;20047;-77
2022/08/10 10:31:19;;;;;;;5.25;1.48;;;;;;;;;;5085870;28;20016;-76
2022/08/10 10:34:23;;;;;;;3.17;1.63;;;;;;;;;;5087303;28;20032;-78
2022/08/10 10:37:10;;;;;;;2.67;1.35;;;;;;;;;;5085114;28;20044;-79
2022/08/10 10:39:57;;;;;;;4.30;1.77;;;;;;;;;;5084717;28;20437;-78
2022/08/10 10:42:45;;;;;;;4.40;1.52;;;;;;;;;;5086050;28;20028;-62
2022/08/10 10:45:43;;;;;;;5.22;1.52;;;;;;;;;;5088959;28;20514;-64
2022/08/10 10:48:40;;;;;;;2.72;1.23;;;;;;;;;;5090357;28;20032;-64
2022/08/10 10:51:41;;;;;;;2.92;1.30;;;;;;;;;;5085651;28;20032;-65
2022/08/10 10:54:33;;;;;;;3.30;1.30;;;;;;;;;;5087958;28;20031;-64
2022/08/10 10:57:30;;;;;;;7.40;1.77;;;;;;;;;;5077756;28;20387;-64
2022/08/10 11:00:16;;;;;;;4.32;1.42;;;;;;;;;;5086700;28;20264;-66
2022/08/10 11:03:41;;;;;;;4.72;1.67;;;;;;;;;;5093044;28;20092;-75
2022/08/10 11:06:45;;;;;;;16.38;5.05;;;;;;;;;;5011114;28;20080;-74
2022/08/10 11:09:36;;;;;;;20.92;4.15;;;;;;;;;;5009535;28;20109;-75
2022/08/10 11:13:00;;;;;;;6.35;2.35;;;;;;;;;;5008454;28;20018;-79
2022/08/10 11:15:46;;;;;;;13.43;4.38;;;;;;;;;;4931724;28;20033;-73
2022/08/10 11:18:38;;;;;;;15.35;3.38;;;;;;;;;;4932238;29;20074;-63
2022/08/10 11:21:31;;;;;;;4.25;2.13;;;;;;;;;;4928025;29;20046;-63
2022/08/10 11:24:52;;;;;;;4.78;2.38;;;;;;;;;;4935173;29;20095;-65
2022/08/10 11:27:47;;;;;;;4.47;1.80;;;;;;;;;;4910865;29;20032;-63
2022/08/10 11:30:44;;;;;;;5.78;1.85;;;;;;;;;;4922747;29;20039;-63
2022/08/10 11:33:48;;;;;;;6.20;1.52;;;;;;;;;;4930534;29;20038;-62
2022/08/10 11:36:43;;;;;;;2.88;1.30;;;;;;;;;;4939169;28;20438;-60
2022/08/10 11:40:04;;;;;;;6.47;1.65;;;;;;;;;;4967918;28;20040;-67
2022/08/10 11:43:04;;;;;;;5.20;2.13;;;;;;;;;;4982560;28;20489;-63
2022/08/10 11:45:53;;;;;;;3.20;1.58;;;;;;;;;;5013151;28;20032;-62
2022/08/10 11:48:42;;;;;;;5.78;1.90;;;;;;;;;;5072914;28;20033;-64
2022/08/10 11:51:33;;;;;;;4.47;1.92;;;;;;;;;;5086639;28;20497;-64
2022/08/10 11:54:24;;;;;;;3.63;1.73;;;;;;;;;;5087545;28;20474;-70
2022/08/10 11:57:11;;;;;;;3.15;1.35;;;;;;;;;;5083020;28;20351;-63
2022/08/10 11:59:56;;;;;;;5.95;1.70;;;;;;;;;;5090216;28;20035;-62
2022/08/10 12:03:06;;;;;;;1.25;1.08;;;;;;;;;;5088526;28;20114;-63
2022/08/10 12:05:52;;;;;;;5.72;1.60;;;;;;;;;;5088418;28;20032;-61
2022/08/10 12:08:40;;;;;;;3.60;1.60;;;;;;;;;;5091633;28;20098;-62
2022/08/10 12:11:28;;;;;;;4.18;1.83;;;;;;;;;;5086867;28;20039;-61
2022/08/10 12:14:15;;;;;;;4.75;1.73;;;;;;;;;;5078145;28;20390;-69
2022/08/10 12:17:04;;;;;;;4.00;1.48;;;;;;;;;;5085599;28;20032;-59
2022/08/10 12:19:52;;;;;;;3.78;1.92;;;;;;;;;;5089659;27;20094;-58
2022/08/10 12:23:01;;;;;;;1.88;1.10;;;;;;;;;;5089916;28;20453;-60
2022/08/10 12:26:07;;;;;;;3.95;1.73;;;;;;;;;;5083081;28;20425;-59
2022/08/10 12:28:56;;;;;;;2.67;1.13;;;;;;;;;;5091146;28;20067;-59
2022/08/10 12:31:46;;;;;;;3.00;1.20;;;;;;;;;;5064804;28;20043;-71
2022/08/10 12:34:38;;;;;;;6.95;1.58;;;;;;;;;;5084658;28;20032;-62
2022/08/10 12:37:28;;;;;;;3.10;1.50;;;;;;;;;;5089641;28;20031;-61
2022/08/10 12:40:20;;;;;;;5.25;1.38;;;;;;;;;;5089402;28;20165;-62
2022/08/10 12:43:06;;;;;;;1.63;1.23;;;;;;;;;;5089000;28;20028;-60
2022/08/10 12:45:54;;;;;;;2.65;1.33;;;;;;;;;;5079137;28;20036;-61
2022/08/10 12:48:53;;;;;;;3.65;1.48;;;;;;;;;;5078324;28;20074;-62
2022/08/10 12:51:45;;;;;;;7.85;1.70;;;;;;;;;;5082916;28;20115;-58
2022/08/10 12:54:34;;;;;;;1.67;1.30;;;;;;;;;;5087469;28;20040;-60
2022/08/10 12:57:22;;;;;;;4.15;1.42;;;;;;;;;;5077274;28;20036;-62
2022/08/10 13:00:09;;;;;;;4.20;1.45;;;;;;;;;;5089638;28;20036;-63
2022/08/10 13:02:55;;;;;;;2.15;1.15;;;;;;;;;;5082000;28;20433;-65
2022/08/10 13:05:41;;;;;;;2.67;1.05;;;;;;;;;;5083167;28;20078;-61
2022/08/10 13:11:42;;;;;;;3.38;1.38;;;;;;;;;;5069741;28;20028;-62
2022/08/10 13:14:34;;;;;;;4.95;1.70;;;;;;;;;;5073641;28;20028;-62
2022/08/10 13:17:24;;;;;;;14.63;5.55;;;;;;;;;;5074108;28;20024;-61
2022/08/10 13:20:12;;;;;;;21.38;8.50;;;;;;;;;;5073989;28;20048;-62
2022/08/10 13:22:58;;;;;;;9.73;3.33;;;;;;;;;;5076105;28;20029;-62
2022/08/10 13:25:46;;;;;;;6.75;2.80;;;;;;;;;;5083705;28;20589;-61
2022/08/10 13:28:52;;;;;;;18.08;3.40;;;;;;;;;;5081432;28;20036;-63
2022/08/10 13:31:40;;;;;;;5.40;2.47;;;;;;;;;;5087621;28;20427;-73
2022/08/10 13:34:27;;;;;;;4.75;1.65;;;;;;;;;;5088669;28;20027;-71
2022/08/10 13:37:14;;;;;;;9.55;2.60;;;;;;;;;;5080960;28;20032;-75
2022/08/10 13:40:00;;;;;;;5.60;2.90;;;;;;;;;;5080610;28;20145;-76
2022/08/10 13:42:46;;;;;;;4.30;1.55;;;;;;;;;;5071275;28;20158;-75
2022/08/10 13:45:32;;;;;;;6.95;1.85;;;;;;;;;;5084171;28;20024;-61
2022/08/10 13:48:21;;;;;;;8.80;2.45;;;;;;;;;;5082637;28;20032;-66
2022/08/10 13:51:11;;;;;;;6.32;1.98;;;;;;;;;;5081513;28;20031;-67
2022/08/10 13:53:57;;;;;;;5.43;2.10;;;;;;;;;;5063796;28;20027;-67
2022/08/10 13:56:45;;;;;;;2.38;1.25;;;;;;;;;;5081406;28;20382;-67
2022/08/10 13:59:32;;;;;;;5.68;2.05;;;;;;;;;;5083712;28;20024;-66
2022/08/10 14:02:33;;;;;;;3.97;1.95;;;;;;;;;;5093038;28;20039;-68
2022/08/10 14:05:23;;;;;;;1.67;1.38;;;;;;;;;;5084455;28;20485;-64
2022/08/10 14:08:10;;;;;;;3.97;2.03;;;;;;;;;;5087630;28;20039;-66
2022/08/10 14:11:01;;;;;;;14.43;10.27;;;;;;;;;;5086520;28;20056;-66
2022/08/10 14:13:55;;;;;;;9.02;5.45;;;;;;;;;;5085423;28;20032;-69
2022/08/10 14:16:42;;;;;;;6.65;3.28;;;;;;;;;;5082349;28;20035;-65
2022/08/10 14:19:30;;;;;;;2.88;1.75;;;;;;;;;;5082888;28;20025;-67
2022/08/10 14:22:17;;;;;;;4.72;2.90;;;;;;;;;;5073008;28;20031;-71
2022/08/10 14:25:10;;;;;;;8.25;4.68;;;;;;;;;;5081954;28;20028;-66
2022/08/10 14:27:56;;;;;;;6.35;2.80;;;;;;;;;;5090919;28;20028;-65
2022/08/10 14:30:42;;;;;;;5.30;2.97;;;;;;;;;;5086702;28;20027;-66
2022/08/10 14:33:29;;;;;;;5.60;2.65;;;;;;;;;;5086608;28;20063;-67
2022/08/10 14:36:18;;;;;;;3.33;2.05;;;;;;;;;;5073121;28;20389;-65
2022/08/10 14:39:04;;;;;;;3.72;2.33;;;;;;;;;;5080774;28;20110;-69
2022/08/10 14:41:50;;;;;;;4.60;2.28;;;;;;;;;;5089113;28;20424;-65
2022/08/10 14:44:47;;;;;;;3.55;1.95;;;;;;;;;;5071346;28;20107;-71
2022/08/10 14:47:37;;;;;;;3.88;1.90;;;;;;;;;;5079363;28;20060;-71
2022/08/10 14:50:23;;;;;;;5.00;1.77;;;;;;;;;;5064523;28;20025;-71
2022/08/10 14:53:13;;;;;;;3.03;1.38;;;;;;;;;;5079718;28;20032;-71
2022/08/10 14:56:03;;;;;;;2.95;1.98;;;;;;;;;;5085911;28;20020;-70
2022/08/10 14:58:56;;;;;;;3.15;1.60;;;;;;;;;;5072687;28;20025;-70
2022/08/10 15:01:43;;;;;;;1.88;1.25;;;;;;;;;;5072686;28;20078;-68
2022/08/10 15:04:29;;;;;;;3.15;1.20;;;;;;;;;;5079830;28;20033;-67
2022/08/10 15:07:20;;;;;;;4.60;1.50;;;;;;;;;;5082777;28;20040;-68
2022/08/10 15:10:08;;;;;;;2.17;1.23;;;;;;;;;;5075965;28;20028;-68
2022/08/10 15:12:54;;;;;;;4.15;1.60;;;;;;;;;;5080439;28;20039;-68
2022/08/10 15:15:39;;;;;;;3.70;1.15;;;;;;;;;;5080889;28;20142;-66
2022/08/10 15:18:27;;;;;;;4.30;1.48;;;;;;;;;;5057071;28;20033;-67
2022/08/10 15:21:13;;;;;;;6.47;1.63;;;;;;;;;;5080285;28;20050;-62
2022/08/10 15:23:59;;;;;;;2.22;1.52;;;;;;;;;;5084929;28;20032;-61
2022/08/10 15:26:46;;;;;;;1.98;1.15;;;;;;;;;;5085459;28;20043;-62
2022/08/10 15:29:33;;;;;;;5.30;1.70;;;;;;;;;;5088944;28;20028;-62
2022/08/10 15:38:32;;;;;;;4.40;1.30;;;;;;;;;;5084511;28;20107;-64
2022/08/10 15:41:28;;;;;;;6.03;1.73;;;;;;;;;;5087402;28;20043;-64
2022/08/10 15:44:14;;;;;;;3.60;1.25;;;;;;;;;;5078623;28;20035;-64
2022/08/10 15:47:02;;;;;;;4.25;1.52;;;;;;;;;;5092265;28;20055;-63
2022/08/10 15:50:00;;;;;;;2.20;1.55;;;;;;;;;;5080776;28;20062;-62
2022/08/10 15:52:49;;;;;;;3.88;1.45;;;;;;;;;;5081332;28;20028;-63
2022/08/10 15:55:38;;;;;;;1.57;1.20;;;;;;;;;;5085234;28;20108;-62
2022/08/10 15:58:37;;;;;;;5.35;1.60;;;;;;;;;;5076018;28;20243;-71
2022/08/10 16:01:25;;;;;;;2.42;1.45;;;;;;;;;;5093314;28;20024;-71
2022/08/10 16:04:14;;;;;;;5.82;1.88;;;;;;;;;;5087912;28;20028;-70
2022/08/10 16:07:09;;;;;;;3.20;1.40;;;;;;;;;;5079479;28;20123;-71
2022/08/10 16:09:57;;;;;;;4.15;1.42;;;;;;;;;;5064761;28;20024;-70
2022/08/10 16:12:53;;;;;;;2.00;1.20;;;;;;;;;;5083399;28;20020;-65
2022/08/10 16:15:39;;;;;;;3.33;1.45;;;;;;;;;;5087298;28;20073;-71
2022/08/10 16:18:27;;;;;;;3.55;1.38;;;;;;;;;;5076032;28;20055;-71
2022/08/10 16:21:14;;;;;;;2.22;1.20;;;;;;;;;;5087789;28;20107;-71
2022/08/10 16:24:02;;;;;;;6.40;1.50;;;;;;;;;;5087646;28;20036;-72
2022/08/10 16:26:50;;;;;;;3.75;1.48;;;;;;;;;;5084008;28;20024;-71
2022/08/10 16:29:36;;;;;;;3.55;1.45;;;;;;;;;;5076505;28;20036;-70
2022/08/10 16:32:23;;;;;;;2.65;1.20;;;;;;;;;;5091511;28;20046;-63
2022/08/10 16:35:09;;;;;;;3.40;1.40;;;;;;;;;;5085608;28;20374;-64
2022/08/10 16:37:56;;;;;;;4.70;2.25;;;;;;;;;;5076543;28;20410;-65
2022/08/10 16:40:42;;;;;;;4.20;1.88;;;;;;;;;;5086294;28;20025;-64
2022/08/10 16:43:27;;;;;;;1.80;1.58;;;;;;;;;;5085213;28;20084;-66
2022/08/10 16:46:15;;;;;;;4.20;1.52;;;;;;;;;;5090625;28;20020;-65
2022/08/10 16:49:01;;;;;;;2.45;1.90;;;;;;;;;;5093371;28;20028;-71
2022/08/10 16:51:48;;;;;;;3.25;1.55;;;;;;;;;;5095427;28;20024;-66
2022/08/10 16:54:34;;;;;;;1.92;1.50;;;;;;;;;;5090982;28;20031;-64
2022/08/10 16:57:19;;;;;;;2.20;1.40;;;;;;;;;;5079359;28;20024;-64
2022/08/10 17:00:08;;;;;;;6.13;2.00;;;;;;;;;;5078614;28;20479;-64
2022/08/10 17:02:56;;;;;;;1.50;1.30;;;;;;;;;;5087150;28;20047;-63
2022/08/10 17:05:42;;;;;;;1.85;1.58;;;;;;;;;;5072918;28;20281;-62
2022/08/10 17:08:29;;;;;;;4.72;1.52;;;;;;;;;;5072498;28;20078;-63
2022/08/10 17:11:20;;;;;;;4.25;1.40;;;;;;;;;;5092378;28;20028;-70